createdAt,value
2018-07-21T00:00:32.946Z,320.00
2018-07-21T00:01:33.762Z,319.00
2018-07-21T00:02:34.526Z,319.00
2018-07-21T00:03:35.304Z,319.00
2018-07-21T00:04:36.076Z,319.00
2018-07-21T00:05:36.856Z,320.00
2018-07-21T00:06:37.661Z,319.00
2018-07-21T00:07:38.443Z,319.00
2018-07-21T00:08:39.223Z,319.00
2018-07-21T00:09:39.998Z,319.00
2018-07-21T00:10:40.779Z,319.00
2018-07-21T00:11:41.579Z,319.00
2018-07-21T00:12:42.359Z,319.00
2018-07-21T00:13:43.129Z,319.00
2018-07-21T00:14:43.905Z,320.00
2018-07-21T00:15:44.687Z,319.00
2018-07-21T00:17:14.691Z,320.00
2018-07-21T00:18:15.465Z,319.00
2018-07-21T00:19:16.253Z,320.00
2018-07-21T00:20:17.015Z,320.00
2018-07-21T00:21:17.791Z,320.00
2018-07-21T00:22:18.592Z,320.00
2018-07-21T00:23:19.368Z,319.00
2018-07-21T00:24:20.145Z,320.00
2018-07-21T00:25:20.920Z,319.00
2018-07-21T00:26:21.693Z,320.00
2018-07-21T00:27:22.502Z,319.00
2018-07-21T00:28:23.291Z,320.00
2018-07-21T00:29:24.052Z,319.00
2018-07-21T00:30:24.829Z,319.00
2018-07-21T00:31:25.603Z,320.00
2018-07-21T00:32:26.407Z,320.00
2018-07-21T00:33:27.192Z,319.00
2018-07-21T00:34:27.966Z,319.00
2018-07-21T00:35:28.741Z,320.00
2018-07-21T00:36:29.532Z,320.00
2018-07-21T00:37:30.332Z,319.00
2018-07-21T00:38:31.118Z,319.00
2018-07-21T00:39:31.884Z,320.00
2018-07-21T00:40:32.668Z,320.00
2018-07-21T00:41:33.433Z,319.00
2018-07-21T00:42:34.248Z,320.00
2018-07-21T00:43:35.014Z,319.00
2018-07-21T00:44:35.798Z,320.00
2018-07-21T00:45:36.565Z,319.00
2018-07-21T00:46:37.347Z,319.00
2018-07-21T00:47:38.148Z,319.00
2018-07-21T00:48:39.928Z,319.00
2018-07-21T00:49:39.700Z,320.00
2018-07-21T00:50:40.480Z,319.00
2018-07-21T00:51:41.253Z,319.00
2018-07-21T00:52:42.070Z,319.00
2018-07-21T00:53:42.838Z,320.00
2018-07-21T00:54:43.619Z,320.00
2018-07-21T00:55:44.391Z,319.00
2018-07-21T00:56:45.169Z,319.00
2018-07-21T00:57:45.973Z,319.00
2018-07-21T00:58:46.752Z,319.00
2018-07-21T00:59:47.533Z,319.00
2018-07-21T01:00:48.310Z,319.00
2018-07-21T01:01:49.175Z,319.00
2018-07-21T01:02:48.904Z,320.00
2018-07-21T01:03:50.679Z,319.00
2018-07-21T01:04:51.464Z,319.00
2018-07-21T01:05:52.234Z,319.00
2018-07-21T01:06:53.011Z,319.00
2018-07-21T01:07:53.817Z,320.00
2018-07-21T01:08:54.601Z,319.00
2018-07-21T01:09:55.372Z,319.00
2018-07-21T01:10:56.152Z,319.00
2018-07-21T01:11:56.952Z,320.00
2018-07-21T01:12:57.739Z,319.00
2018-07-21T01:13:58.521Z,319.00
2018-07-21T01:14:59.299Z,319.00
2018-07-21T01:16:00.072Z,319.00
2018-07-21T01:17:00.874Z,320.00
2018-07-21T01:18:02.655Z,320.00
2018-07-21T01:19:02.433Z,319.00
2018-07-21T01:20:03.211Z,319.00
2018-07-21T01:21:03.987Z,320.00
2018-07-21T01:22:04.761Z,319.00
2018-07-21T01:23:05.563Z,319.00
2018-07-21T01:24:06.428Z,319.00
2018-07-21T01:25:06.127Z,319.00
2018-07-21T01:26:07.905Z,320.00
2018-07-21T01:27:08.686Z,319.00
2018-07-21T01:28:09.492Z,319.00
2018-07-21T01:29:10.279Z,319.00
2018-07-21T01:30:11.043Z,320.00
2018-07-21T01:31:11.826Z,319.00
2018-07-21T01:32:12.598Z,319.00
2018-07-21T01:33:13.402Z,319.00
2018-07-21T01:34:14.176Z,319.00
2018-07-21T01:35:14.952Z,320.00
2018-07-21T01:36:15.732Z,319.00
2018-07-21T01:37:16.510Z,319.00
2018-07-21T01:38:17.333Z,319.00
2018-07-21T01:39:18.096Z,320.00
2018-07-21T01:40:18.875Z,319.00
2018-07-21T01:41:19.647Z,319.00
2018-07-21T01:42:20.427Z,319.00
2018-07-21T01:43:21.230Z,319.00
2018-07-21T01:44:22.013Z,319.00
2018-07-21T01:45:22.787Z,319.00
2018-07-21T01:46:23.565Z,319.00
2018-07-21T01:47:24.340Z,319.00
2018-07-21T01:48:25.151Z,320.00
2018-07-21T01:49:25.922Z,319.00
2018-07-21T01:50:26.701Z,319.00
2018-07-21T01:51:27.472Z,320.00
2018-07-21T01:52:28.253Z,319.00
2018-07-21T01:53:29.052Z,320.00
2018-07-21T01:54:29.834Z,319.00
2018-07-21T01:55:30.606Z,319.00
2018-07-21T01:56:31.382Z,319.00
2018-07-21T01:57:32.182Z,319.00
2018-07-21T01:58:32.974Z,319.00
2018-07-21T01:59:33.755Z,319.00
2018-07-21T02:00:34.527Z,319.00
2018-07-21T02:01:35.305Z,319.00
2018-07-21T02:02:36.077Z,320.00
2018-07-21T02:03:36.884Z,319.00
2018-07-21T02:04:36.660Z,319.00
2018-07-21T02:05:38.438Z,320.00
2018-07-21T02:06:42.102Z,320.00
2018-07-21T02:07:40.398Z,319.00
2018-07-21T02:08:41.117Z,320.00
2018-07-21T02:19:07.361Z,319.00
2018-07-21T02:20:08.172Z,319.00
2018-07-21T02:21:08.944Z,319.00
2018-07-21T02:22:09.721Z,319.00
2018-07-21T02:23:10.494Z,319.00
2018-07-21T02:24:11.274Z,320.00
2018-07-21T02:25:12.072Z,319.00
2018-07-21T02:26:12.847Z,319.00
2018-07-21T02:27:13.622Z,319.00
2018-07-21T02:28:14.401Z,319.00
2018-07-21T02:29:15.177Z,319.00
2018-07-21T02:30:15.987Z,319.00
2018-07-21T02:31:16.757Z,319.00
2018-07-21T02:32:17.535Z,319.00
2018-07-21T02:33:18.307Z,320.00
2018-07-21T02:34:19.085Z,320.00
2018-07-21T02:35:19.916Z,319.00
2018-07-21T02:36:20.715Z,319.00
2018-07-21T02:37:21.464Z,320.00
2018-07-21T02:38:22.252Z,319.00
2018-07-21T02:39:23.015Z,319.00
2018-07-21T02:40:23.814Z,319.00
2018-07-21T02:41:24.597Z,319.00
2018-07-21T02:42:25.368Z,320.00
2018-07-21T02:43:26.147Z,319.00
2018-07-21T02:44:26.918Z,319.00
2018-07-21T02:45:27.727Z,319.00
2018-07-21T02:46:28.500Z,319.00
2018-07-21T02:47:29.272Z,319.00
2018-07-21T02:48:30.048Z,319.00
2018-07-21T02:49:30.830Z,319.00
2018-07-21T02:50:31.628Z,319.00
2018-07-21T02:51:32.408Z,320.00
2018-07-21T02:52:33.184Z,319.00
2018-07-21T02:53:33.958Z,319.00
2018-07-21T02:54:34.734Z,320.00
2018-07-21T02:55:35.537Z,319.00
2018-07-21T02:56:36.313Z,319.00
2018-07-21T02:57:37.104Z,319.00
2018-07-21T02:58:37.866Z,319.00
2018-07-21T02:59:38.725Z,320.00
2018-07-21T03:00:38.455Z,320.00
2018-07-21T03:01:40.234Z,319.00
2018-07-21T03:02:41.010Z,320.00
2018-07-21T03:03:41.787Z,319.00
2018-07-21T03:04:42.564Z,320.00
2018-07-21T03:05:43.365Z,320.00
2018-07-21T03:06:44.142Z,320.00
2018-07-21T03:07:44.913Z,319.00
2018-07-21T03:08:45.688Z,320.00
2018-07-21T03:09:46.485Z,320.00
2018-07-21T03:10:47.272Z,320.00
2018-07-21T03:11:48.055Z,320.00
2018-07-21T03:12:48.828Z,320.00
2018-07-21T03:13:49.599Z,320.00
2018-07-21T03:14:50.392Z,320.00
2018-07-21T03:15:51.194Z,320.00
2018-07-21T03:16:51.974Z,319.00
2018-07-21T03:17:52.746Z,320.00
2018-07-21T03:18:53.528Z,321.00
2018-07-21T03:19:54.296Z,320.00
2018-07-21T03:20:55.101Z,320.00
2018-07-21T03:21:55.888Z,320.00
2018-07-21T03:22:56.651Z,321.00
2018-07-21T03:23:57.426Z,321.00
2018-07-21T03:24:58.205Z,320.00
2018-07-21T03:25:59.005Z,320.00
2018-07-21T03:26:59.797Z,320.00
2018-07-21T03:28:00.563Z,320.00
2018-07-21T03:29:01.339Z,320.00
2018-07-21T03:30:02.111Z,321.00
2018-07-21T03:31:01.965Z,320.00
2018-07-21T03:32:02.703Z,320.00
2018-07-21T03:33:04.476Z,320.00
2018-07-21T03:34:05.250Z,320.00
2018-07-21T03:35:06.026Z,320.00
2018-07-21T03:36:06.831Z,320.00
2018-07-21T03:37:07.610Z,321.00
2018-07-21T03:38:08.390Z,320.00
2018-07-21T03:39:09.165Z,320.00
2018-07-21T03:40:09.941Z,320.00
2018-07-21T03:41:10.743Z,320.00
2018-07-21T03:42:11.530Z,321.00
2018-07-21T03:43:12.292Z,320.00
2018-07-21T03:44:13.070Z,320.00
2018-07-21T03:45:13.851Z,320.00
2018-07-21T03:46:15.652Z,320.00
2018-07-21T03:47:15.425Z,320.00
2018-07-21T03:48:16.216Z,320.00
2018-07-21T03:49:16.991Z,320.00
2018-07-21T03:50:17.767Z,321.00
2018-07-21T03:51:18.570Z,321.00
2018-07-21T03:52:19.352Z,320.00
2018-07-21T03:53:20.120Z,320.00
2018-07-21T03:54:20.979Z,320.00
2018-07-21T03:55:20.684Z,321.00
2018-07-21T03:56:21.496Z,320.00
2018-07-21T03:57:23.272Z,320.00
2018-07-21T03:58:24.042Z,320.00
2018-07-21T03:59:24.819Z,320.00
2018-07-21T04:00:25.609Z,320.00
2018-07-21T04:01:26.404Z,320.00
2018-07-21T04:02:27.178Z,320.00
2018-07-21T04:03:27.953Z,320.00
2018-07-21T04:04:28.729Z,321.00
2018-07-21T04:05:29.505Z,320.00
2018-07-21T04:06:30.307Z,320.00
2018-07-21T04:07:31.081Z,321.00
2018-07-21T04:08:31.860Z,320.00
2018-07-21T04:09:33.098Z,320.00
2018-07-21T04:10:33.349Z,320.00
2018-07-21T04:11:32.641Z,321.00
2018-07-21T04:22:03.360Z,321.00
2018-07-21T04:23:03.163Z,321.00
2018-07-21T04:24:03.969Z,321.00
2018-07-21T04:25:05.722Z,322.00
2018-07-21T04:26:06.496Z,321.00
2018-07-21T04:27:07.273Z,321.00
2018-07-21T04:28:08.076Z,322.00
2018-07-21T04:29:08.848Z,322.00
2018-07-21T04:30:09.628Z,321.00
2018-07-21T04:31:10.409Z,321.00
2018-07-21T04:32:11.174Z,321.00
2018-07-21T04:33:11.973Z,321.00
2018-07-21T04:34:12.783Z,321.00
2018-07-21T04:35:12.770Z,321.00
2018-07-21T04:36:13.494Z,321.00
2018-07-21T04:37:14.263Z,322.00
2018-07-21T04:38:16.056Z,322.00
2018-07-21T04:39:16.861Z,321.00
2018-07-21T04:40:17.627Z,321.00
2018-07-21T04:41:18.449Z,321.00
2018-07-21T04:42:18.199Z,322.00
2018-07-21T04:43:20.004Z,322.00
2018-07-21T04:44:20.781Z,321.00
2018-07-21T04:45:21.553Z,321.00
2018-07-21T04:46:22.329Z,322.00
2018-07-21T04:47:23.104Z,322.00
2018-07-21T04:48:23.909Z,321.00
2018-07-21T04:49:24.689Z,322.00
2018-07-21T04:50:25.460Z,322.00
2018-07-21T04:51:26.243Z,322.00
2018-07-21T04:52:27.012Z,322.00
2018-07-21T04:53:27.815Z,322.00
2018-07-21T04:54:28.591Z,322.00
2018-07-21T04:55:29.369Z,321.00
2018-07-21T04:56:30.144Z,322.00
2018-07-21T04:57:31.917Z,322.00
2018-07-21T04:58:31.718Z,322.00
2018-07-21T04:59:32.505Z,322.00
2018-07-21T05:00:33.281Z,324.00
2018-07-21T05:01:34.056Z,324.00
2018-07-21T05:02:34.829Z,324.00
2018-07-21T05:03:35.633Z,324.00
2018-07-21T05:04:36.403Z,322.00
2018-07-21T05:05:37.180Z,325.00
2018-07-21T05:06:37.954Z,325.00
2018-07-21T05:07:38.732Z,324.00
2018-07-21T05:08:39.543Z,324.00
2018-07-21T05:09:40.312Z,325.00
2018-07-21T05:10:41.091Z,321.00
2018-07-21T05:11:41.864Z,321.00
2018-07-21T05:12:42.641Z,324.00
2018-07-21T05:13:44.445Z,325.00
2018-07-21T05:14:44.215Z,324.00
2018-07-21T05:15:44.993Z,321.00
2018-07-21T05:16:45.768Z,321.00
2018-07-21T05:17:46.543Z,321.00
2018-07-21T05:18:47.360Z,324.00
2018-07-21T05:19:48.138Z,324.00
2018-07-21T05:20:48.907Z,321.00
2018-07-21T05:21:49.694Z,321.00
2018-07-21T05:22:50.459Z,324.00
2018-07-21T05:23:52.266Z,322.00
2018-07-21T05:24:52.044Z,321.00
2018-07-21T05:25:52.822Z,321.00
2018-07-21T05:26:53.592Z,321.00
2018-07-21T05:27:54.374Z,325.00
2018-07-21T05:28:55.172Z,322.00
2018-07-21T05:29:55.958Z,321.00
2018-07-21T05:30:56.731Z,321.00
2018-07-21T05:31:57.523Z,321.00
2018-07-21T05:32:58.286Z,326.00
2018-07-21T05:33:59.099Z,321.00
2018-07-21T05:34:59.868Z,321.00
2018-07-21T05:36:00.648Z,321.00
2018-07-21T05:37:01.416Z,321.00
2018-07-21T05:38:02.196Z,325.00
2018-07-21T05:39:03.017Z,325.00
2018-07-21T05:40:03.775Z,325.00
2018-07-21T05:41:04.549Z,326.00
2018-07-21T05:42:05.331Z,326.00
2018-07-21T05:43:06.106Z,325.00
2018-07-21T05:44:06.920Z,325.00
2018-07-21T05:45:07.771Z,325.00
2018-07-21T05:46:07.480Z,325.00
2018-07-21T05:47:09.239Z,325.00
2018-07-21T05:48:10.024Z,325.00
2018-07-21T05:49:10.837Z,325.00
2018-07-21T05:50:11.600Z,326.00
2018-07-21T05:51:12.383Z,326.00
2018-07-21T05:52:13.161Z,325.00
2018-07-21T05:53:13.985Z,326.00
2018-07-21T05:54:13.749Z,326.00
2018-07-21T05:55:15.523Z,326.00
2018-07-21T05:56:16.298Z,327.00
2018-07-21T05:57:17.076Z,326.00
2018-07-21T05:58:17.862Z,327.00
2018-07-21T05:59:18.666Z,327.00
2018-07-21T06:00:19.447Z,327.00
2018-07-21T06:01:20.222Z,327.00
2018-07-21T06:02:20.997Z,327.00
2018-07-21T06:03:21.773Z,327.00
2018-07-21T06:04:22.583Z,327.00
2018-07-21T06:05:23.362Z,328.00
2018-07-21T06:06:24.134Z,328.00
2018-07-21T06:07:24.910Z,328.00
2018-07-21T06:08:25.685Z,328.00
2018-07-21T06:09:25.491Z,328.00
2018-07-21T06:10:27.263Z,327.00
2018-07-21T06:11:28.040Z,328.00
2018-07-21T06:12:28.823Z,328.00
2018-07-21T06:13:29.592Z,328.00
2018-07-21T06:14:30.403Z,329.00
2018-07-21T06:15:31.177Z,329.00
2018-07-21T06:16:32.393Z,329.00
2018-07-21T06:17:33.719Z,329.00
2018-07-21T06:18:32.006Z,329.00
2018-07-21T06:20:00.488Z,330.00
2018-07-21T06:21:01.264Z,330.00
2018-07-21T06:22:02.036Z,330.00
2018-07-21T06:23:02.811Z,331.00
2018-07-21T06:24:03.586Z,330.00
2018-07-21T06:25:04.391Z,332.00
2018-07-21T06:26:05.169Z,331.00
2018-07-21T06:27:05.950Z,332.00
2018-07-21T06:28:06.794Z,331.00
2018-07-21T06:29:06.503Z,331.00
2018-07-21T06:30:08.305Z,332.00
2018-07-21T06:31:09.092Z,332.00
2018-07-21T06:32:09.856Z,332.00
2018-07-21T06:33:10.640Z,332.00
2018-07-21T06:34:11.408Z,332.00
2018-07-21T06:35:12.218Z,332.00
2018-07-21T06:36:12.992Z,332.00
2018-07-21T06:37:13.766Z,333.00
2018-07-21T06:38:14.538Z,333.00
2018-07-21T06:39:15.318Z,334.00
2018-07-21T06:40:16.118Z,333.00
2018-07-21T06:41:17.896Z,334.00
2018-07-21T06:42:17.668Z,334.00
2018-07-21T06:43:18.454Z,336.00
2018-07-21T06:44:19.231Z,336.00
2018-07-21T06:45:20.030Z,337.00
2018-07-21T06:46:20.807Z,337.00
2018-07-21T06:47:21.591Z,338.00
2018-07-21T06:48:22.361Z,340.00
2018-07-21T06:49:23.140Z,338.00
2018-07-21T06:50:23.943Z,338.00
2018-07-21T06:51:24.720Z,339.00
2018-07-21T06:52:25.495Z,339.00
2018-07-21T06:53:26.273Z,340.00
2018-07-21T06:54:27.091Z,340.00
2018-07-21T06:55:26.858Z,340.00
2018-07-21T06:56:28.645Z,343.00
2018-07-21T06:57:29.410Z,342.00
2018-07-21T06:58:30.193Z,342.00
2018-07-21T06:59:31.053Z,342.00
2018-07-21T07:00:30.799Z,342.00
2018-07-21T07:01:32.572Z,342.00
2018-07-21T07:02:33.336Z,342.00
2018-07-21T07:03:34.117Z,342.00
2018-07-21T07:04:34.926Z,344.00
2018-07-21T07:05:35.689Z,343.00
2018-07-21T07:06:36.468Z,346.00
2018-07-21T07:07:37.237Z,346.00
2018-07-21T07:08:38.018Z,350.00
2018-07-21T07:09:38.793Z,350.00
2018-07-21T07:10:39.595Z,349.00
2018-07-21T07:11:40.373Z,349.00
2018-07-21T07:12:41.148Z,345.00
2018-07-21T07:13:41.932Z,348.00
2018-07-21T07:14:42.711Z,346.00
2018-07-21T07:15:43.510Z,348.00
2018-07-21T07:16:44.287Z,345.00
2018-07-21T07:17:45.072Z,348.00
2018-07-21T07:18:45.844Z,349.00
2018-07-21T07:19:46.617Z,346.00
2018-07-21T07:20:47.422Z,348.00
2018-07-21T07:21:48.207Z,346.00
2018-07-21T07:22:48.982Z,348.00
2018-07-21T07:23:49.757Z,348.00
2018-07-21T07:24:50.535Z,349.00
2018-07-21T07:25:51.345Z,350.00
2018-07-21T07:26:52.118Z,351.00
2018-07-21T07:27:52.899Z,352.00
2018-07-21T07:28:53.675Z,356.00
2018-07-21T07:29:54.450Z,355.00
2018-07-21T07:30:55.271Z,350.00
2018-07-21T07:31:56.043Z,350.00
2018-07-21T07:32:56.822Z,348.00
2018-07-21T07:33:57.597Z,349.00
2018-07-21T07:34:58.378Z,348.00
2018-07-21T07:35:59.276Z,349.00
2018-07-21T07:36:58.976Z,352.00
2018-07-21T07:38:00.754Z,355.00
2018-07-21T07:39:01.534Z,350.00
2018-07-21T07:40:02.309Z,355.00
2018-07-21T07:41:03.111Z,354.00
2018-07-21T07:42:03.906Z,348.00
2018-07-21T07:43:03.665Z,345.00
2018-07-21T07:44:05.441Z,345.00
2018-07-21T07:45:06.224Z,343.00
2018-07-21T07:46:07.019Z,342.00
2018-07-21T07:47:07.799Z,342.00
2018-07-21T07:48:08.574Z,343.00
2018-07-21T07:49:09.351Z,342.00
2018-07-21T07:50:10.126Z,346.00
2018-07-21T07:51:09.951Z,344.00
2018-07-21T07:52:11.734Z,348.00
2018-07-21T07:53:12.496Z,348.00
2018-07-21T07:54:13.278Z,349.00
2018-07-21T07:55:14.049Z,355.00
2018-07-21T07:56:14.853Z,360.00
2018-07-21T07:57:15.628Z,367.00
2018-07-21T07:58:17.412Z,362.00
2018-07-21T07:59:17.179Z,352.00
2018-07-21T08:00:17.962Z,350.00
2018-07-21T08:01:18.790Z,350.00
2018-07-21T08:02:18.542Z,351.00
2018-07-21T08:03:20.322Z,356.00
2018-07-21T08:04:21.107Z,365.00
2018-07-21T08:05:21.870Z,375.00
2018-07-21T08:06:22.676Z,374.00
2018-07-21T08:07:23.451Z,370.00
2018-07-21T08:08:24.237Z,363.00
2018-07-21T08:09:24.002Z,369.00
2018-07-21T08:10:25.777Z,365.00
2018-07-21T08:11:26.581Z,357.00
2018-07-21T08:12:27.363Z,354.00
2018-07-21T08:13:28.138Z,357.00
2018-07-21T08:14:29.339Z,354.00
2018-07-21T08:15:29.602Z,356.00
2018-07-21T08:16:28.918Z,357.00
2018-07-21T08:17:37.321Z,358.00
2018-07-21T08:18:38.106Z,357.00
2018-07-21T08:19:38.872Z,369.00
2018-07-21T08:20:39.650Z,357.00
2018-07-21T08:21:40.517Z,353.00
2018-07-21T08:22:41.296Z,352.00
2018-07-21T08:23:42.072Z,351.00
2018-07-21T08:24:42.850Z,350.00
2018-07-21T08:25:44.623Z,351.00
2018-07-21T08:26:44.428Z,353.00
2018-07-21T08:27:45.226Z,356.00
2018-07-21T08:28:45.991Z,357.00
2018-07-21T08:29:46.772Z,361.00
2018-07-21T08:30:47.548Z,362.00
2018-07-21T08:31:48.352Z,364.00
2018-07-21T08:32:49.133Z,363.00
2018-07-21T08:33:49.911Z,365.00
2018-07-21T08:34:50.687Z,365.00
2018-07-21T08:35:51.462Z,367.00
2018-07-21T08:36:52.272Z,363.00
2018-07-21T08:37:53.048Z,360.00
2018-07-21T08:38:53.827Z,358.00
2018-07-21T08:39:54.602Z,357.00
2018-07-21T08:40:55.383Z,357.00
2018-07-21T08:41:56.203Z,356.00
2018-07-21T08:42:56.969Z,355.00
2018-07-21T08:43:57.752Z,353.00
2018-07-21T08:44:58.526Z,354.00
2018-07-21T08:45:59.304Z,352.00
2018-07-21T08:47:00.132Z,352.00
2018-07-21T08:48:00.894Z,354.00
2018-07-21T08:49:01.678Z,350.00
2018-07-21T08:50:02.446Z,351.00
2018-07-21T08:51:03.229Z,351.00
2018-07-21T08:52:04.028Z,352.00
2018-07-21T08:53:04.812Z,351.00
2018-07-21T08:54:05.591Z,351.00
2018-07-21T08:55:06.363Z,352.00
2018-07-21T08:56:07.202Z,351.00
2018-07-21T08:57:06.955Z,351.00
2018-07-21T08:58:08.723Z,350.00
2018-07-21T08:59:09.499Z,348.00
2018-07-21T09:00:10.279Z,349.00
2018-07-21T09:01:11.052Z,348.00
2018-07-21T09:02:11.862Z,346.00
2018-07-21T09:03:12.637Z,346.00
2018-07-21T09:04:13.413Z,345.00
2018-07-21T09:05:14.191Z,344.00
2018-07-21T09:06:14.981Z,344.00
2018-07-21T09:07:15.768Z,344.00
2018-07-21T09:08:16.552Z,342.00
2018-07-21T09:09:17.324Z,341.00
2018-07-21T09:10:18.102Z,341.00
2018-07-21T09:11:18.878Z,341.00
2018-07-21T09:12:19.679Z,341.00
2018-07-21T09:13:20.454Z,341.00
2018-07-21T09:14:21.237Z,341.00
2018-07-21T09:15:22.014Z,341.00
2018-07-21T09:16:22.790Z,341.00
2018-07-21T09:17:23.598Z,341.00
2018-07-21T09:18:24.379Z,341.00
2018-07-21T09:19:25.148Z,341.00
2018-07-21T09:20:25.931Z,341.00
2018-07-21T09:21:26.763Z,340.00
2018-07-21T09:22:26.508Z,340.00
2018-07-21T09:23:28.283Z,340.00
2018-07-21T09:24:29.056Z,340.00
2018-07-21T09:25:29.833Z,340.00
2018-07-21T09:26:30.605Z,339.00
2018-07-21T09:27:31.410Z,338.00
2018-07-21T09:28:32.192Z,338.00
2018-07-21T09:29:32.967Z,338.00
2018-07-21T09:30:33.747Z,338.00
2018-07-21T09:31:34.527Z,338.00
2018-07-21T09:32:35.328Z,338.00
2018-07-21T09:33:36.101Z,337.00
2018-07-21T09:34:36.879Z,338.00
2018-07-21T09:35:37.661Z,337.00
2018-07-21T09:36:38.430Z,337.00
2018-07-21T09:37:39.243Z,336.00
2018-07-21T09:38:40.103Z,337.00
2018-07-21T09:39:40.804Z,336.00
2018-07-21T09:40:41.582Z,338.00
2018-07-21T09:41:42.356Z,337.00
2018-07-21T09:42:43.170Z,339.00
2018-07-21T09:43:43.945Z,340.00
2018-07-21T09:44:44.732Z,340.00
2018-07-21T09:45:45.495Z,339.00
2018-07-21T09:46:46.355Z,341.00
2018-07-21T09:47:46.100Z,341.00
2018-07-21T09:48:47.864Z,341.00
2018-07-21T09:49:48.647Z,342.00
2018-07-21T09:50:49.422Z,341.00
2018-07-21T09:51:51.197Z,342.00
2018-07-21T09:52:51.002Z,343.00
2018-07-21T09:53:51.783Z,342.00
2018-07-21T09:54:52.560Z,342.00
2018-07-21T09:55:52.466Z,342.00
2018-07-21T09:56:53.125Z,344.00
2018-07-21T09:57:54.922Z,344.00
2018-07-21T09:58:55.707Z,343.00
2018-07-21T09:59:56.474Z,344.00
2018-07-21T10:00:57.261Z,345.00
2018-07-21T10:01:58.024Z,346.00
2018-07-21T10:02:58.832Z,344.00
2018-07-21T10:03:59.609Z,340.00
2018-07-21T10:05:00.383Z,341.00
2018-07-21T10:06:01.157Z,341.00
2018-07-21T10:07:01.935Z,348.00
2018-07-21T10:08:02.739Z,348.00
2018-07-21T10:09:03.534Z,348.00
2018-07-21T10:10:04.730Z,342.00
2018-07-21T10:13:52.091Z,343.00
2018-07-21T10:14:52.867Z,344.00
2018-07-21T10:15:53.650Z,344.00
2018-07-21T10:16:54.410Z,344.00
2018-07-21T10:17:55.201Z,344.00
2018-07-21T10:18:55.991Z,343.00
2018-07-21T10:19:56.765Z,349.00
2018-07-21T10:20:57.538Z,344.00
2018-07-21T10:21:58.397Z,344.00
2018-07-21T10:22:58.107Z,350.00
2018-07-21T10:23:59.899Z,345.00
2018-07-21T10:25:00.674Z,345.00
2018-07-21T10:26:01.454Z,361.00
2018-07-21T10:27:02.229Z,346.00
2018-07-21T10:28:02.997Z,348.00
2018-07-21T10:29:03.801Z,348.00
2018-07-21T10:30:04.629Z,349.00
2018-07-21T10:31:04.352Z,357.00
2018-07-21T10:32:06.125Z,361.00
2018-07-21T10:33:06.961Z,363.00
2018-07-21T10:34:06.707Z,365.00
2018-07-21T10:35:08.492Z,367.00
2018-07-21T10:36:09.264Z,370.00
2018-07-21T10:37:10.037Z,374.00
2018-07-21T10:38:10.890Z,381.00
2018-07-21T10:39:10.618Z,386.00
2018-07-21T10:40:12.393Z,398.00
2018-07-21T10:41:13.176Z,399.00
2018-07-21T10:42:13.947Z,400.00
2018-07-21T10:43:14.725Z,397.00
2018-07-21T10:44:15.529Z,398.00
2018-07-21T10:45:16.307Z,384.00
2018-07-21T10:46:17.080Z,385.00
2018-07-21T10:47:17.859Z,385.00
2018-07-21T10:48:18.652Z,387.00
2018-07-21T10:49:19.455Z,394.00
2018-07-21T10:50:20.232Z,397.00
2018-07-21T10:51:21.004Z,398.00
2018-07-21T10:52:21.783Z,398.00
2018-07-21T10:53:22.655Z,384.00
2018-07-21T10:54:22.386Z,384.00
2018-07-21T10:55:24.160Z,399.00
2018-07-21T10:56:24.942Z,396.00
2018-07-21T10:57:25.721Z,390.00
2018-07-21T10:58:26.508Z,389.00
2018-07-21T10:59:27.303Z,389.00
2018-07-21T11:00:28.081Z,384.00
2018-07-21T11:01:28.857Z,380.00
2018-07-21T11:02:29.632Z,381.00
2018-07-21T11:03:30.435Z,397.00
2018-07-21T11:04:31.243Z,382.00
2018-07-21T11:05:32.019Z,380.00
2018-07-21T11:06:32.796Z,381.00
2018-07-21T11:07:33.568Z,374.00
2018-07-21T11:08:34.436Z,384.00
2018-07-21T11:09:34.166Z,398.00
2018-07-21T11:10:35.940Z,382.00
2018-07-21T11:11:36.719Z,382.00
2018-07-21T11:12:37.496Z,387.00
2018-07-21T11:13:38.268Z,384.00
2018-07-21T11:14:39.074Z,399.00
2018-07-21T11:15:39.857Z,399.00
2018-07-21T11:16:40.628Z,399.00
2018-07-21T11:17:41.410Z,399.00
2018-07-21T11:18:42.185Z,397.00
2018-07-21T11:19:43.983Z,397.00
2018-07-21T11:20:43.757Z,396.00
2018-07-21T11:21:44.544Z,397.00
2018-07-21T11:22:45.319Z,398.00
2018-07-21T11:23:46.100Z,396.00
2018-07-21T11:24:46.900Z,394.00
2018-07-21T11:25:47.683Z,397.00
2018-07-21T11:26:48.456Z,397.00
2018-07-21T11:27:49.232Z,398.00
2018-07-21T11:28:50.007Z,397.00
2018-07-21T11:29:50.812Z,397.00
2018-07-21T11:30:51.598Z,398.00
2018-07-21T11:31:52.377Z,398.00
2018-07-21T11:32:53.160Z,396.00
2018-07-21T11:33:53.929Z,387.00
2018-07-21T11:34:54.739Z,390.00
2018-07-21T11:35:55.778Z,382.00
2018-07-21T11:36:55.297Z,380.00
2018-07-21T11:37:57.072Z,381.00
2018-07-21T11:38:57.850Z,381.00
2018-07-21T11:39:58.663Z,380.00
2018-07-21T11:40:59.437Z,378.00
2018-07-21T11:42:00.212Z,374.00
2018-07-21T11:43:00.987Z,376.00
2018-07-21T11:44:01.763Z,376.00
2018-07-21T11:45:02.590Z,376.00
2018-07-21T11:46:03.354Z,374.00
2018-07-21T11:47:04.140Z,377.00
2018-07-21T11:48:04.907Z,382.00
2018-07-21T11:49:05.685Z,385.00
2018-07-21T11:50:06.490Z,382.00
2018-07-21T11:51:07.267Z,376.00
2018-07-21T11:52:08.041Z,376.00
2018-07-21T11:53:09.811Z,375.00
2018-07-21T11:54:09.591Z,376.00
2018-07-21T11:55:10.401Z,374.00
2018-07-21T11:56:11.175Z,380.00
2018-07-21T11:57:11.961Z,382.00
2018-07-21T11:58:12.728Z,382.00
2018-07-21T11:59:13.567Z,385.00
2018-07-21T12:00:13.314Z,387.00
2018-07-21T12:01:15.090Z,396.00
2018-07-21T12:02:15.863Z,399.00
2018-07-21T12:03:16.640Z,398.00
2018-07-21T12:04:17.421Z,398.00
2018-07-21T12:05:18.289Z,398.00
2018-07-21T12:06:18.003Z,397.00
2018-07-21T12:07:19.779Z,398.00
2018-07-21T12:08:20.981Z,398.00
2018-07-21T12:09:21.248Z,398.00
2018-07-21T12:10:20.564Z,399.00
2018-07-21T12:11:29.819Z,398.00
2018-07-21T12:12:30.678Z,398.00
2018-07-21T12:13:30.430Z,398.00
2018-07-21T12:14:31.200Z,398.00
2018-07-21T12:15:31.957Z,398.00
2018-07-21T12:16:33.737Z,398.00
2018-07-21T12:17:34.610Z,398.00
2018-07-21T12:18:34.303Z,398.00
2018-07-21T12:19:36.085Z,397.00
2018-07-21T12:20:36.891Z,396.00
2018-07-21T12:21:37.667Z,396.00
2018-07-21T12:22:38.441Z,396.00
2018-07-21T12:23:38.218Z,396.00
2018-07-21T12:24:39.991Z,394.00
2018-07-21T12:25:40.800Z,392.00
2018-07-21T12:26:41.582Z,396.00
2018-07-21T12:27:42.347Z,394.00
2018-07-21T12:28:43.130Z,398.00
2018-07-21T12:29:43.899Z,394.00
2018-07-21T12:30:44.701Z,397.00
2018-07-21T12:31:45.480Z,397.00
2018-07-21T12:32:46.254Z,398.00
2018-07-21T12:33:47.147Z,397.00
2018-07-21T12:34:46.805Z,398.00
2018-07-21T12:35:48.611Z,397.00
2018-07-21T12:36:49.387Z,397.00
2018-07-21T12:37:50.166Z,397.00
2018-07-21T12:38:50.939Z,398.00
2018-07-21T12:39:51.717Z,397.00
2018-07-21T12:40:52.536Z,398.00
2018-07-21T12:41:53.298Z,397.00
2018-07-21T12:42:54.081Z,398.00
2018-07-21T12:43:54.852Z,397.00
2018-07-21T12:44:55.651Z,397.00
2018-07-21T12:45:55.436Z,373.00
2018-07-21T12:46:57.214Z,367.00
2018-07-21T12:47:57.994Z,366.00
2018-07-21T12:48:58.769Z,364.00
2018-07-21T12:49:59.562Z,365.00
2018-07-21T12:51:00.357Z,382.00
2018-07-21T12:52:01.129Z,398.00
2018-07-21T12:53:01.907Z,398.00
2018-07-21T12:54:02.680Z,398.00
2018-07-21T12:55:03.457Z,399.00
2018-07-21T12:56:04.265Z,397.00
2018-07-21T12:57:05.035Z,397.00
2018-07-21T12:58:05.833Z,397.00
2018-07-21T12:59:06.602Z,358.00
2018-07-21T13:00:07.381Z,360.00
2018-07-21T13:01:08.187Z,365.00